createdAt,value
2019-04-16T11:56:49.783Z,21
2019-04-16T11:58:50.259Z,23
2019-04-16T12:00:50.765Z,19
2019-04-16T12:02:50.134Z,20
2019-04-16T12:04:49.767Z,25
2019-04-16T12:06:50.142Z,22
2019-04-16T12:08:50.410Z,21
2019-04-16T12:10:50.739Z,26
2019-04-16T12:12:50.042Z,30
2019-04-16T12:14:50.370Z,31
2019-04-16T12:16:50.805Z,18
2019-04-16T12:18:49.931Z,28
2019-04-16T12:20:50.214Z,23
2019-04-16T12:22:49.783Z,31
2019-04-16T12:24:50.136Z,25
2019-04-16T12:26:50.476Z,34
2019-04-16T12:28:49.903Z,29
2019-04-16T12:30:50.387Z,21
2019-04-16T12:32:50.614Z,25
2019-04-16T12:34:51.818Z,27
2019-04-16T12:36:50.306Z,28
2019-04-16T12:38:50.552Z,4
2019-04-16T12:40:50.267Z,0
2019-04-16T12:42:50.678Z,9
2019-04-16T12:44:50.301Z,6
2019-04-16T12:46:50.684Z,30
2019-04-16T12:48:50.086Z,27
2019-04-16T12:50:50.399Z,0
2019-04-16T12:52:56.055Z,0
2019-04-16T12:54:50.449Z,0
2019-04-16T12:56:50.362Z,0
2019-04-16T12:58:51.588Z,0
2019-04-16T13:00:49.847Z,0
2019-04-16T13:02:49.676Z,0
2019-04-16T13:04:50.343Z,0
2019-04-16T13:06:50.171Z,0
2019-04-16T13:08:53.991Z,0
2019-04-16T13:10:50.186Z,0
2019-04-16T13:12:49.737Z,0
2019-04-16T13:15:02.500Z,0
2019-04-16T13:16:50.609Z,0
2019-04-16T13:18:49.783Z,0
2019-04-16T13:20:49.976Z,0
2019-04-16T13:22:49.786Z,0
2019-04-16T13:24:50.135Z,0
2019-04-16T13:26:50.620Z,0
2019-04-16T13:28:55.408Z,0
2019-04-16T13:30:50.404Z,0
2019-04-16T13:32:50.654Z,0
2019-04-16T13:34:50.633Z,0
2019-04-16T13:36:52.496Z,0
2019-04-16T13:38:49.735Z,0
2019-04-16T13:40:54.343Z,0
2019-04-16T13:42:50.573Z,0
2019-04-16T13:44:49.927Z,0
2019-04-16T13:46:50.442Z,0
2019-04-16T13:48:49.776Z,0
2019-04-16T13:50:49.922Z,0
2019-04-16T13:52:56.126Z,0
2019-04-16T13:54:50.411Z,0
2019-04-16T13:56:51.996Z,0
2019-04-16T13:58:50.202Z,0
2019-04-16T14:00:50.385Z,0
2019-04-16T14:02:52.302Z,0
2019-04-16T14:04:49.820Z,0
2019-04-16T14:06:50.278Z,0
2019-04-16T14:08:50.453Z,0
2019-04-16T14:10:50.635Z,0
2019-04-16T14:12:49.806Z,0
2019-04-16T14:14:50.528Z,0
2019-04-16T14:16:49.883Z,0
2019-04-16T14:18:50.128Z,0
2019-04-16T14:20:50.364Z,0
2019-04-16T14:22:54.441Z,0
2019-04-16T14:24:50.632Z,0
2019-04-16T14:26:49.911Z,0
2019-04-16T14:28:52.934Z,0
2019-04-16T14:30:49.722Z,0
2019-04-16T14:32:50.085Z,0
2019-04-16T14:34:50.619Z,0
2019-04-16T14:36:49.734Z,0
2019-04-16T14:38:49.800Z,0
2019-04-16T14:40:50.098Z,0
2019-04-16T14:42:58.769Z,0
2019-04-16T14:44:49.908Z,0
2019-04-16T14:46:50.228Z,0
2019-04-16T14:48:50.398Z,0
2019-04-16T14:50:50.691Z,0
2019-04-16T14:52:49.965Z,0
2019-04-16T14:54:50.369Z,0
2019-04-16T14:56:49.996Z,0
2019-04-16T14:58:50.501Z,0
2019-04-16T15:00:50.394Z,0
2019-04-16T15:02:50.278Z,0
2019-04-16T15:04:49.801Z,0
2019-04-16T15:06:53.844Z,0
2019-04-16T15:08:50.039Z,0
2019-04-16T15:10:50.248Z,0
2019-04-16T15:12:50.490Z,0
2019-04-16T15:14:50.121Z,0
2019-04-16T15:16:51.397Z,0
2019-04-16T15:18:49.691Z,0
2019-04-16T15:20:49.876Z,0
2019-04-16T15:22:50.122Z,0
2019-04-16T15:24:49.973Z,0
2019-04-16T15:26:53.730Z,0
2019-04-16T15:28:49.897Z,0
2019-04-16T15:30:50.126Z,4
2019-04-16T15:32:49.951Z,0
2019-04-16T15:34:50.524Z,3
2019-04-16T15:36:55.365Z,10
2019-04-16T15:38:50.554Z,8
2019-04-16T15:40:50.465Z,9
2019-04-16T15:42:49.735Z,12
2019-04-16T15:44:58.045Z,13
2019-04-16T15:46:50.359Z,23
2019-04-16T15:48:51.477Z,24
2019-04-16T15:50:49.723Z,29
2019-04-16T15:52:50.017Z,27
2019-04-16T15:54:50.226Z,24
2019-04-16T15:56:50.657Z,24
2019-04-16T15:58:50.382Z,20
2019-04-16T16:00:50.647Z,27
2019-04-16T16:02:49.808Z,24
2019-04-16T16:04:49.998Z,24
2019-04-16T16:06:53.449Z,21
2019-04-16T16:08:50.649Z,19
2019-04-16T16:10:49.960Z,26
2019-04-16T16:12:54.655Z,17
2019-04-16T16:14:49.883Z,30
2019-04-16T16:16:51.808Z,22
2019-04-16T16:18:50.010Z,23
2019-04-16T16:20:50.339Z,21
2019-04-16T16:22:50.646Z,26
2019-04-16T16:24:49.821Z,32
2019-04-16T16:26:50.232Z,21
2019-04-16T16:28:50.379Z,21
2019-04-16T16:30:50.518Z,21
